sensor_id;sensor_type;location;lat;lon;timestamp;pressure;altitude;pressure_sealevel;temperature;humidity
12793;BME280;6460;42.684;23.260;2023-11-21T00:17:06;94420.16;;;6.58;100.00
12793;BME280;6460;42.684;23.260;2023-11-21T00:19:33;94418.16;;;6.55;100.00
12793;BME280;6460;42.684;23.260;2023-11-21T00:22:01;94419.22;;;6.17;100.00
12793;BME280;6460;42.684;23.260;2023-11-21T00:24:29;94417.19;;;6.02;100.00
12793;BME280;6460;42.684;23.260;2023-11-21T00:26:58;94413.22;;;6.08;100.00
12793;BME280;6460;42.684;23.260;2023-11-21T00:29:26;94417.84;;;5.87;100.00
12793;BME280;6460;42.684;23.260;2023-11-21T00:31:54;94408.78;;;5.59;100.00
12793;BME280;6460;42.684;23.260;2023-11-21T00:34:24;94416.44;;;5.48;100.00
12793;BME280;6460;42.684;23.260;2023-11-21T00:36:52;94408.06;;;5.70;100.00
12793;BME280;6460;42.684;23.260;2023-11-21T00:39:20;94409.22;;;5.28;100.00
12793;BME280;6460;42.684;23.260;2023-11-21T00:41:47;94408.56;;;5.52;100.00
12793;BME280;6460;42.684;23.260;2023-11-21T00:44:15;94411.28;;;5.64;100.00
12793;BME280;6460;42.684;23.260;2023-11-21T00:46:43;94417.97;;;5.70;100.00
12793;BME280;6460;42.684;23.260;2023-11-21T00:49:11;94412.66;;;5.28;100.00
12793;BME280;6460;42.684;23.260;2023-11-21T00:51:41;94417.09;;;5.45;100.00
12793;BME280;6460;42.684;23.260;2023-11-21T00:54:08;94406.88;;;5.47;100.00
12793;BME280;6460;42.684;23.260;2023-11-21T00:56:37;94405.91;;;5.52;100.00
12793;BME280;6460;42.684;23.260;2023-11-21T00:59:06;94401.97;;;5.16;100.00
12793;BME280;6460;42.684;23.260;2023-11-21T01:01:34;94396.16;;;5.14;100.00
12793;BME280;6460;42.684;23.260;2023-11-21T01:04:04;94401.16;;;4.95;100.00
12793;BME280;6460;42.684;23.260;2023-11-21T01:06:33;94394.28;;;5.15;100.00
12793;BME280;6460;42.684;23.260;2023-11-21T01:09:02;94395.59;;;5.29;100.00
12793;BME280;6460;42.684;23.260;2023-11-21T01:11:34;94388.66;;;5.49;100.00
12793;BME280;6460;42.684;23.260;2023-11-21T01:14:03;94391.38;;;5.61;100.00
12793;BME280;6460;42.684;23.260;2023-11-21T01:16:32;94383.03;;;5.63;100.00
12793;BME280;6460;42.684;23.260;2023-11-21T01:19:00;94386.63;;;5.67;100.00
12793;BME280;6460;42.684;23.260;2023-11-21T01:21:28;94399.44;;;5.53;100.00
12793;BME280;6460;42.684;23.260;2023-11-21T01:23:56;94395.81;;;5.57;100.00
12793;BME280;6460;42.684;23.260;2023-11-21T01:26:26;94393.53;;;5.26;100.00
12793;BME280;6460;42.684;23.260;2023-11-21T01:28:54;94398.69;;;5.31;100.00
12793;BME280;6460;42.684;23.260;2023-11-21T01:31:22;94388.81;;;5.32;100.00
12793;BME280;6460;42.684;23.260;2023-11-21T01:33:50;94389.22;;;5.22;100.00
12793;BME280;6460;42.684;23.260;2023-11-21T01:36:18;94403.38;;;4.93;100.00
12793;BME280;6460;42.684;23.260;2023-11-21T01:38:46;94411.16;;;4.98;100.00
12793;BME280;6460;42.684;23.260;2023-11-21T01:41:14;94403.78;;;5.04;100.00
12793;BME280;6460;42.684;23.260;2023-11-21T01:43:44;94406.84;;;4.85;100.00
12793;BME280;6460;42.684;23.260;2023-11-21T01:46:11;94397.38;;;4.96;100.00
12793;BME280;6460;42.684;23.260;2023-11-21T01:48:41;94382.63;;;4.99;100.00
12793;BME280;6460;42.684;23.260;2023-11-21T01:51:11;94383.72;;;4.77;100.00
12793;BME280;6460;42.684;23.260;2023-11-21T01:53:39;94382.81;;;4.73;100.00
12793;BME280;6460;42.684;23.260;2023-11-21T01:56:07;94385.44;;;4.82;100.00
12793;BME280;6460;42.684;23.260;2023-11-21T01:58:36;94398.03;;;4.93;100.00
12793;BME280;6460;42.684;23.260;2023-11-21T02:01:06;94398.47;;;4.95;100.00
12793;BME280;6460;42.684;23.260;2023-11-21T02:03:34;94392.59;;;5.10;100.00
12793;BME280;6460;42.684;23.260;2023-11-21T02:06:02;94385.38;;;5.11;100.00
12793;BME280;6460;42.684;23.260;2023-11-21T02:08:31;94394.53;;;5.22;100.00
12793;BME280;6460;42.684;23.260;2023-11-21T02:10:59;94397.66;;;5.24;100.00
12793;BME280;6460;42.684;23.260;2023-11-21T02:13:28;94391.34;;;5.08;100.00
12793;BME280;6460;42.684;23.260;2023-11-21T02:15:56;94395.94;;;4.78;100.00
12793;BME280;6460;42.684;23.260;2023-11-21T02:18:26;94389.91;;;4.90;100.00
12793;BME280;6460;42.684;23.260;2023-11-21T02:20:55;94391.31;;;5.16;100.00
12793;BME280;6460;42.684;23.260;2023-11-21T02:23:25;94385.75;;;5.21;100.00
12793;BME280;6460;42.684;23.260;2023-11-21T02:25:54;94383.81;;;5.30;100.00
12793;BME280;6460;42.684;23.260;2023-11-21T02:28:21;94383.63;;;5.15;100.00
12793;BME280;6460;42.684;23.260;2023-11-21T02:30:51;94379.59;;;4.88;100.00
12793;BME280;6460;42.684;23.260;2023-11-21T02:33:22;94378.31;;;4.94;100.00
12793;BME280;6460;42.684;23.260;2023-11-21T02:35:50;94381.22;;;5.01;100.00
12793;BME280;6460;42.684;23.260;2023-11-21T02:38:21;94387.16;;;5.07;100.00
12793;BME280;6460;42.684;23.260;2023-11-21T02:40:50;94384.34;;;5.03;100.00
12793;BME280;6460;42.684;23.260;2023-11-21T02:43:18;94380.13;;;5.02;100.00
12793;BME280;6460;42.684;23.260;2023-11-21T02:45:46;94382.66;;;5.19;100.00
12793;BME280;6460;42.684;23.260;2023-11-21T02:48:14;94378.44;;;4.98;100.00
12793;BME280;6460;42.684;23.260;2023-11-21T02:50:42;94387.31;;;4.81;100.00
12793;BME280;6460;42.684;23.260;2023-11-21T02:53:10;94384.31;;;4.53;100.00
12793;BME280;6460;42.684;23.260;2023-11-21T02:55:38;94386.03;;;4.87;100.00
12793;BME280;6460;42.684;23.260;2023-11-21T02:58:08;94377.81;;;4.71;100.00
12793;BME280;6460;42.684;23.260;2023-11-21T03:00:35;94380.28;;;4.76;100.00
12793;BME280;6460;42.684;23.260;2023-11-21T03:03:03;94372.47;;;4.51;100.00
12793;BME280;6460;42.684;23.260;2023-11-21T03:05:31;94373.00;;;4.65;100.00
12793;BME280;6460;42.684;23.260;2023-11-21T03:08:01;94376.94;;;4.88;100.00
12793;BME280;6460;42.684;23.260;2023-11-21T03:10:29;94374.03;;;4.72;100.00
12793;BME280;6460;42.684;23.260;2023-11-21T03:12:57;94374.91;;;4.85;100.00
12793;BME280;6460;42.684;23.260;2023-11-21T03:15:27;94375.13;;;5.01;100.00
12793;BME280;6460;42.684;23.260;2023-11-21T03:17:54;94373.56;;;5.00;100.00
12793;BME280;6460;42.684;23.260;2023-11-21T03:20:23;94382.19;;;4.97;100.00
12793;BME280;6460;42.684;23.260;2023-11-21T03:22:51;94381.84;;;4.98;100.00
12793;BME280;6460;42.684;23.260;2023-11-21T03:25:19;94387.28;;;5.10;100.00
12793;BME280;6460;42.684;23.260;2023-11-21T03:27:50;94388.03;;;5.11;100.00
12793;BME280;6460;42.684;23.260;2023-11-21T03:30:18;94400.84;;;4.97;100.00
12793;BME280;6460;42.684;23.260;2023-11-21T03:32:48;94389.47;;;5.08;100.00
12793;BME280;6460;42.684;23.260;2023-11-21T03:35:16;94388.81;;;5.11;100.00
12793;BME280;6460;42.684;23.260;2023-11-21T03:37:46;94395.97;;;4.69;100.00
12793;BME280;6460;42.684;23.260;2023-11-21T03:40:13;94380.16;;;4.73;100.00
12793;BME280;6460;42.684;23.260;2023-11-21T03:42:41;94373.34;;;4.84;100.00
12793;BME280;6460;42.684;23.260;2023-11-21T03:45:09;94365.31;;;4.72;100.00
12793;BME280;6460;42.684;23.260;2023-11-21T03:47:38;94358.41;;;4.71;100.00
12793;BME280;6460;42.684;23.260;2023-11-21T03:50:08;94364.47;;;4.51;100.00
12793;BME280;6460;42.684;23.260;2023-11-21T03:52:37;94366.13;;;4.35;100.00
12793;BME280;6460;42.684;23.260;2023-11-21T03:55:05;94364.09;;;4.32;100.00
12793;BME280;6460;42.684;23.260;2023-11-21T03:57:33;94354.84;;;4.38;100.00
12793;BME280;6460;42.684;23.260;2023-11-21T04:00:01;94362.78;;;4.46;100.00
12793;BME280;6460;42.684;23.260;2023-11-21T04:02:30;94364.09;;;4.61;100.00
12793;BME280;6460;42.684;23.260;2023-11-21T04:04:59;94358.38;;;4.50;100.00
12793;BME280;6460;42.684;23.260;2023-11-21T04:07:28;94363.19;;;4.57;100.00
12793;BME280;6460;42.684;23.260;2023-11-21T04:09:56;94360.88;;;4.76;100.00
12793;BME280;6460;42.684;23.260;2023-11-21T04:12:24;94360.78;;;4.64;100.00
12793;BME280;6460;42.684;23.260;2023-11-21T04:14:52;94351.72;;;4.36;100.00
12793;BME280;6460;42.684;23.260;2023-11-21T04:17:20;94353.94;;;4.34;100.00
12793;BME280;6460;42.684;23.260;2023-11-21T04:19:48;94360.13;;;4.17;100.00
12793;BME280;6460;42.684;23.260;2023-11-21T04:22:16;94356.81;;;4.20;100.00
12793;BME280;6460;42.684;23.260;2023-11-21T04:24:45;94358.41;;;4.12;100.00
12793;BME280;6460;42.684;23.260;2023-11-21T04:27:13;94363.56;;;4.17;100.00
12793;BME280;6460;42.684;23.260;2023-11-21T04:29:44;94368.06;;;4.25;100.00
12793;BME280;6460;42.684;23.260;2023-11-21T04:32:12;94356.41;;;4.39;100.00
12793;BME280;6460;42.684;23.260;2023-11-21T04:34:40;94359.69;;;4.65;100.00
12793;BME280;6460;42.684;23.260;2023-11-21T04:37:08;94364.69;;;4.37;100.00
12793;BME280;6460;42.684;23.260;2023-11-21T04:39:37;94359.19;;;4.13;100.00
12793;BME280;6460;42.684;23.260;2023-11-21T04:42:06;94359.00;;;4.47;100.00
12793;BME280;6460;42.684;23.260;2023-11-21T04:44:34;94356.69;;;4.66;100.00
12793;BME280;6460;42.684;23.260;2023-11-21T04:47:02;94361.53;;;4.73;100.00
12793;BME280;6460;42.684;23.260;2023-11-21T04:49:30;94355.69;;;4.79;100.00
12793;BME280;6460;42.684;23.260;2023-11-21T04:51:58;94369.13;;;4.83;100.00
12793;BME280;6460;42.684;23.260;2023-11-21T04:54:27;94370.31;;;4.94;100.00
12793;BME280;6460;42.684;23.260;2023-11-21T04:56:56;94364.25;;;4.85;100.00
12793;BME280;6460;42.684;23.260;2023-11-21T04:59:26;94362.97;;;4.91;100.00
12793;BME280;6460;42.684;23.260;2023-11-21T05:01:54;94370.22;;;4.82;100.00
12793;BME280;6460;42.684;23.260;2023-11-21T05:04:22;94373.94;;;4.90;100.00
12793;BME280;6460;42.684;23.260;2023-11-21T05:06:50;94371.41;;;4.93;100.00
12793;BME280;6460;42.684;23.260;2023-11-21T05:09:18;94358.53;;;4.95;100.00
12793;BME280;6460;42.684;23.260;2023-11-21T05:11:47;94357.72;;;5.03;100.00
12793;BME280;6460;42.684;23.260;2023-11-21T05:14:15;94357.53;;;4.88;100.00
12793;BME280;6460;42.684;23.260;2023-11-21T05:16:46;94356.59;;;5.04;100.00
12793;BME280;6460;42.684;23.260;2023-11-21T05:19:14;94358.75;;;4.90;100.00
12793;BME280;6460;42.684;23.260;2023-11-21T05:21:41;94358.75;;;4.90;100.00
12793;BME280;6460;42.684;23.260;2023-11-21T05:24:09;94358.81;;;4.82;100.00
12793;BME280;6460;42.684;23.260;2023-11-21T05:26:37;94364.13;;;5.02;100.00
12793;BME280;6460;42.684;23.260;2023-11-21T05:29:05;94363.88;;;4.95;100.00
12793;BME280;6460;42.684;23.260;2023-11-21T05:31:34;94372.50;;;4.92;100.00
12793;BME280;6460;42.684;23.260;2023-11-21T05:34:04;94375.84;;;5.10;100.00
12793;BME280;6460;42.684;23.260;2023-11-21T05:36:32;94373.09;;;5.18;100.00
12793;BME280;6460;42.684;23.260;2023-11-21T05:38:59;94370.63;;;5.13;100.00
12793;BME280;6460;42.684;23.260;2023-11-21T05:41:29;94374.91;;;4.85;100.00
12793;BME280;6460;42.684;23.260;2023-11-21T05:43:58;94379.41;;;4.93;100.00
12793;BME280;6460;42.684;23.260;2023-11-21T05:46:27;94385.00;;;5.00;100.00
12793;BME280;6460;42.684;23.260;2023-11-21T05:48:55;94373.66;;;4.82;100.00
12793;BME280;6460;42.684;23.260;2023-11-21T05:51:24;94370.22;;;4.82;100.00
12793;BME280;6460;42.684;23.260;2023-11-21T05:53:52;94364.38;;;4.89;100.00
12793;BME280;6460;42.684;23.260;2023-11-21T05:56:20;94359.81;;;4.98;100.00
12793;BME280;6460;42.684;23.260;2023-11-21T05:58:48;94376.47;;;4.86;100.00
12793;BME280;6460;42.684;23.260;2023-11-21T06:01:17;94366.34;;;5.00;100.00
12793;BME280;6460;42.684;23.260;2023-11-21T06:03:45;94369.84;;;4.92;100.00
12793;BME280;6460;42.684;23.260;2023-11-21T06:06:13;94364.53;;;4.92;100.00
12793;BME280;6460;42.684;23.260;2023-11-21T06:08:43;94372.97;;;4.94;100.00
12793;BME280;6460;42.684;23.260;2023-11-21T06:11:11;94376.75;;;4.93;100.00
12793;BME280;6460;42.684;23.260;2023-11-21T06:13:40;94382.25;;;5.09;100.00
12793;BME280;6460;42.684;23.260;2023-11-21T06:16:08;94378.16;;;5.11;100.00
12793;BME280;6460;42.684;23.260;2023-11-21T06:18:35;94388.16;;;5.14;100.00
12793;BME280;6460;42.684;23.260;2023-11-21T06:21:02;94386.16;;;5.11;100.00
12793;BME280;6460;42.684;23.260;2023-11-21T06:23:30;94395.16;;;4.98;100.00
12793;BME280;6460;42.684;23.260;2023-11-21T06:25:59;94386.16;;;4.91;100.00
12793;BME280;6460;42.684;23.260;2023-11-21T06:28:26;94385.44;;;5.02;100.00
12793;BME280;6460;42.684;23.260;2023-11-21T06:30:53;94383.31;;;5.16;100.00
12793;BME280;6460;42.684;23.260;2023-11-21T06:33:19;94394.97;;;5.24;100.00
12793;BME280;6460;42.684;23.260;2023-11-21T06:35:47;94392.59;;;5.10;100.00
12793;BME280;6460;42.684;23.260;2023-11-21T06:38:15;94397.47;;;5.29;100.00
12793;BME280;6460;42.684;23.260;2023-11-21T06:40:43;94403.38;;;5.34;100.00
12793;BME280;6460;42.684;23.260;2023-11-21T06:43:13;94404.19;;;5.26;100.00
12793;BME280;6460;42.684;23.260;2023-11-21T06:45:41;94411.38;;;5.34;100.00
12793;BME280;6460;42.684;23.260;2023-11-21T06:48:10;94411.16;;;5.19;100.00
12793;BME280;6460;42.684;23.260;2023-11-21T06:50:37;94409.63;;;5.39;100.00
12793;BME280;6460;42.684;23.260;2023-11-21T06:53:04;94413.38;;;5.58;100.00
12793;BME280;6460;42.684;23.260;2023-11-21T06:55:33;94413.41;;;5.70;100.00
12793;BME280;6460;42.684;23.260;2023-11-21T06:58:01;94414.63;;;5.73;100.00
12793;BME280;6460;42.684;23.260;2023-11-21T07:00:30;94407.66;;;5.48;100.00
12793;BME280;6460;42.684;23.260;2023-11-21T07:02:57;94404.22;;;5.80;100.00
12793;BME280;6460;42.684;23.260;2023-11-21T07:05:24;94408.38;;;5.69;100.00
12793;BME280;6460;42.684;23.260;2023-11-21T07:07:52;94401.63;;;5.71;100.00
12793;BME280;6460;42.684;23.260;2023-11-21T07:10:20;94400.38;;;5.90;100.00
12793;BME280;6460;42.684;23.260;2023-11-21T07:12:48;94402.81;;;5.62;100.00
12793;BME280;6460;42.684;23.260;2023-11-21T07:15:17;94391.19;;;5.78;100.00
12793;BME280;6460;42.684;23.260;2023-11-21T07:17:46;94386.84;;;6.07;100.00
12793;BME280;6460;42.684;23.260;2023-11-21T07:20:14;94395.84;;;6.02;100.00
12793;BME280;6460;42.684;23.260;2023-11-21T07:22:43;94403.63;;;6.07;100.00
12793;BME280;6460;42.684;23.260;2023-11-21T07:25:11;94393.19;;;6.02;100.00
12793;BME280;6460;42.684;23.260;2023-11-21T07:27:39;94399.31;;;6.15;100.00
12793;BME280;6460;42.684;23.260;2023-11-21T07:30:07;94405.66;;;6.22;100.00
12793;BME280;6460;42.684;23.260;2023-11-21T07:32:36;94406.34;;;6.80;100.00
12793;BME280;6460;42.684;23.260;2023-11-21T07:35:08;94406.75;;;7.18;100.00
12793;BME280;6460;42.684;23.260;2023-11-21T07:37:35;94397.44;;;7.00;100.00
12793;BME280;6460;42.684;23.260;2023-11-21T07:40:03;94399.34;;;6.87;100.00
12793;BME280;6460;42.684;23.260;2023-11-21T07:42:31;94395.91;;;6.63;100.00
12793;BME280;6460;42.684;23.260;2023-11-21T07:44:59;94398.69;;;6.54;100.00
12793;BME280;6460;42.684;23.260;2023-11-21T07:47:26;94394.91;;;6.43;100.00
12793;BME280;6460;42.684;23.260;2023-11-21T07:49:53;94393.13;;;6.71;100.00
12793;BME280;6460;42.684;23.260;2023-11-21T07:52:24;94398.13;;;6.24;100.00
12793;BME280;6460;42.684;23.260;2023-11-21T07:54:51;94398.34;;;6.56;100.00
12793;BME280;6460;42.684;23.260;2023-11-21T07:57:18;94385.44;;;6.09;100.00
12793;BME280;6460;42.684;23.260;2023-11-21T07:59:46;94382.91;;;6.37;100.00
12793;BME280;6460;42.684;23.260;2023-11-21T08:02:13;94385.22;;;6.26;100.00
12793;BME280;6460;42.684;23.260;2023-11-21T08:04:42;94390.44;;;6.35;100.00
12793;BME280;6460;42.684;23.260;2023-11-21T08:07:10;94377.88;;;6.35;100.00
12793;BME280;6460;42.684;23.260;2023-11-21T08:09:39;94385.69;;;6.41;100.00
12793;BME280;6460;42.684;23.260;2023-11-21T08:12:07;94376.56;;;6.66;100.00
12793;BME280;6460;42.684;23.260;2023-11-21T08:14:37;94391.22;;;6.72;100.00
12793;BME280;6460;42.684;23.260;2023-11-21T08:17:05;94376.28;;;6.83;100.00
12793;BME280;6460;42.684;23.260;2023-11-21T08:19:33;94389.34;;;6.48;100.00
12793;BME280;6460;42.684;23.260;2023-11-21T08:22:01;94367.63;;;6.74;100.00
12793;BME280;6460;42.684;23.260;2023-11-21T08:24:29;94387.88;;;6.38;100.00
12793;BME280;6460;42.684;23.260;2023-11-21T08:27:15;94368.97;;;6.68;100.00
12793;BME280;6460;42.684;23.260;2023-11-21T08:29:43;94373.31;;;6.84;100.00
12793;BME280;6460;42.684;23.260;2023-11-21T08:32:12;94375.81;;;7.05;100.00
12793;BME280;6460;42.684;23.260;2023-11-21T08:34:40;94373.03;;;7.14;100.00
12793;BME280;6460;42.684;23.260;2023-11-21T08:37:09;94378.44;;;7.29;100.00
12793;BME280;6460;42.684;23.260;2023-11-21T08:39:37;94376.81;;;7.53;100.00
12793;BME280;6460;42.684;23.260;2023-11-21T08:42:05;94373.88;;;7.58;100.00
12793;BME280;6460;42.684;23.260;2023-11-21T08:44:34;94377.19;;;7.67;100.00
12793;BME280;6460;42.684;23.260;2023-11-21T08:47:02;94375.13;;;7.76;100.00
12793;BME280;6460;42.684;23.260;2023-11-21T08:49:31;94373.75;;;7.82;100.00
12793;BME280;6460;42.684;23.260;2023-11-21T08:51:59;94372.16;;;7.93;100.00
12793;BME280;6460;42.684;23.260;2023-11-21T08:54:27;94370.88;;;8.18;100.00
12793;BME280;6460;42.684;23.260;2023-11-21T08:56:55;94359.00;;;8.31;100.00
12793;BME280;6460;42.684;23.260;2023-11-21T08:59:24;94345.16;;;8.61;100.00
12793;BME280;6460;42.684;23.260;2023-11-21T09:01:53;94348.25;;;8.63;100.00
12793;BME280;6460;42.684;23.260;2023-11-21T09:04:21;94332.78;;;8.72;100.00
12793;BME280;6460;42.684;23.260;2023-11-21T09:06:49;94323.34;;;8.78;100.00
12793;BME280;6460;42.684;23.260;2023-11-21T09:09:17;94314.47;;;8.74;100.00
12793;BME280;6460;42.684;23.260;2023-11-21T09:11:45;94315.13;;;8.86;99.45
12793;BME280;6460;42.684;23.260;2023-11-21T09:14:15;94298.72;;;8.72;97.67
12793;BME280;6460;42.684;23.260;2023-11-21T09:16:43;94316.38;;;8.73;96.10
12793;BME280;6460;42.684;23.260;2023-11-21T09:19:12;94306.56;;;8.81;98.03
12793;BME280;6460;42.684;23.260;2023-11-21T09:21:41;94296.22;;;8.98;93.88
12793;BME280;6460;42.684;23.260;2023-11-21T09:24:08;94283.88;;;9.13;91.85
12793;BME280;6460;42.684;23.260;2023-11-21T09:26:35;94280.63;;;9.23;88.84
12793;BME280;6460;42.684;23.260;2023-11-21T09:29:03;94275.97;;;9.39;85.87
12793;BME280;6460;42.684;23.260;2023-11-21T09:31:30;94267.25;;;9.04;85.81
12793;BME280;6460;42.684;23.260;2023-11-21T09:33:59;94255.81;;;9.26;85.81
12793;BME280;6460;42.684;23.260;2023-11-21T09:36:29;94257.16;;;9.17;84.95
12793;BME280;6460;42.684;23.260;2023-11-21T09:38:56;94261.13;;;9.45;83.51
12793;BME280;6460;42.684;23.260;2023-11-21T09:41:30;94251.66;;;9.51;83.16
12793;BME280;6460;42.684;23.260;2023-11-21T09:44:03;94237.28;;;9.60;83.33
12793;BME280;6460;42.684;23.260;2023-11-21T09:46:34;94237.50;;;9.74;83.40
12793;BME280;6460;42.684;23.260;2023-11-21T09:49:07;94223.03;;;9.78;82.75
12793;BME280;6460;42.684;23.260;2023-11-21T09:51:42;94214.59;;;10.02;81.55
12793;BME280;6460;42.684;23.260;2023-11-21T09:54:11;94214.75;;;10.13;81.38
12793;BME280;6460;42.684;23.260;2023-11-21T09:56:39;94209.53;;;10.20;80.47
12793;BME280;6460;42.684;23.260;2023-11-21T09:59:10;94207.69;;;10.54;79.72
12793;BME280;6460;42.684;23.260;2023-11-21T10:01:42;94211.81;;;10.74;78.71
12793;BME280;6460;42.684;23.260;2023-11-21T10:04:10;94204.69;;;10.89;78.00
12793;BME280;6460;42.684;23.260;2023-11-21T10:06:41;94197.72;;;10.54;76.87
12793;BME280;6460;42.684;23.260;2023-11-21T10:09:10;94190.69;;;11.06;74.56
12793;BME280;6460;42.684;23.260;2023-11-21T10:11:40;94193.69;;;11.01;74.45
12793;BME280;6460;42.684;23.260;2023-11-21T10:14:11;94189.81;;;11.32;73.60
12793;BME280;6460;42.684;23.260;2023-11-21T10:16:41;94180.19;;;11.31;74.25
12793;BME280;6460;42.684;23.260;2023-11-21T10:19:10;94180.34;;;11.45;72.58
12793;BME280;6460;42.684;23.260;2023-11-21T10:21:43;94173.38;;;11.40;72.37
12793;BME280;6460;42.684;23.260;2023-11-21T10:24:10;94171.53;;;11.48;72.15
12793;BME280;6460;42.684;23.260;2023-11-21T10:26:38;94167.25;;;11.43;71.63
12793;BME280;6460;42.684;23.260;2023-11-21T10:29:07;94176.41;;;11.35;71.97
12793;BME280;6460;42.684;23.260;2023-11-21T10:31:38;94162.53;;;11.33;72.25
12793;BME280;6460;42.684;23.260;2023-11-21T10:34:13;94175.66;;;11.38;72.46
12793;BME280;6460;42.684;23.260;2023-11-21T10:36:43;94170.53;;;10.30;74.30
12793;BME280;6460;42.684;23.260;2023-11-21T10:39:16;94159.81;;;10.93;73.79
12793;BME280;6460;42.684;23.260;2023-11-21T10:41:45;94166.22;;;11.18;72.84
12793;BME280;6460;42.684;23.260;2023-11-21T10:44:14;94164.22;;;11.11;71.74
12793;BME280;6460;42.684;23.260;2023-11-21T10:46:47;94165.19;;;10.93;72.67
12793;BME280;6460;42.684;23.260;2023-11-21T10:49:17;94156.22;;;11.15;71.97
12793;BME280;6460;42.684;23.260;2023-11-21T10:51:47;94150.75;;;11.08;71.85
12793;BME280;6460;42.684;23.260;2023-11-21T10:54:20;94146.16;;;11.08;73.27
12793;BME280;6460;42.684;23.260;2023-11-21T10:56:49;94145.19;;;11.27;71.49
12793;BME280;6460;42.684;23.260;2023-11-21T10:59:19;94141.38;;;10.95;72.00
12793;BME280;6460;42.684;23.260;2023-11-21T11:01:51;94138.31;;;11.33;70.78
12793;BME280;6460;42.684;23.260;2023-11-21T11:04:19;94133.53;;;11.12;71.10
12793;BME280;6460;42.684;23.260;2023-11-21T11:06:53;94142.06;;;11.22;70.33
12793;BME280;6460;42.684;23.260;2023-11-21T11:09:22;94128.72;;;11.32;70.57
12793;BME280;6460;42.684;23.260;2023-11-21T11:11:51;94125.75;;;11.44;70.80
12793;BME280;6460;42.684;23.260;2023-11-21T11:14:20;94121.25;;;11.59;70.16
12793;BME280;6460;42.684;23.260;2023-11-21T11:16:53;94112.88;;;11.67;69.16
12793;BME280;6460;42.684;23.260;2023-11-21T11:19:21;94112.44;;;11.62;69.52
12793;BME280;6460;42.684;23.260;2023-11-21T11:21:59;94096.88;;;11.38;69.65
12793;BME280;6460;42.684;23.260;2023-11-21T11:24:50;94095.41;;;11.47;69.66
12793;BME280;6460;42.684;23.260;2023-11-21T11:27:30;94092.66;;;11.40;69.54
12793;BME280;6460;42.684;23.260;2023-11-21T11:30:09;94088.75;;;11.34;70.39
12793;BME280;6460;42.684;23.260;2023-11-21T11:32:51;94081.22;;;11.50;69.37
12793;BME280;6460;42.684;23.260;2023-11-21T11:35:26;94083.44;;;11.41;69.62
12793;BME280;6460;42.684;23.260;2023-11-21T11:37:59;94086.41;;;11.29;70.32
12793;BME280;6460;42.684;23.260;2023-11-21T11:40:39;94091.09;;;11.36;71.34
12793;BME280;6460;42.684;23.260;2023-11-21T11:43:08;94101.94;;;11.46;70.73
12793;BME280;6460;42.684;23.260;2023-11-21T11:45:36;94101.97;;;11.50;70.10
12793;BME280;6460;42.684;23.260;2023-11-21T11:48:07;94103.53;;;11.54;69.27
12793;BME280;6460;42.684;23.260;2023-11-21T11:50:36;94094.28;;;11.52;69.75
12793;BME280;6460;42.684;23.260;2023-11-21T11:53:14;94095.88;;;11.56;71.41
12793;BME280;6460;42.684;23.260;2023-11-21T11:55:44;94090.72;;;11.37;72.74
12793;BME280;6460;42.684;23.260;2023-11-21T11:58:12;94084.06;;;11.24;72.61
12793;BME280;6460;42.684;23.260;2023-11-21T12:00:40;94093.19;;;11.12;75.12
12793;BME280;6460;42.684;23.260;2023-11-21T12:03:11;94104.00;;;10.83;75.33
12793;BME280;6460;42.684;23.260;2023-11-21T12:05:40;94105.47;;;10.43;75.86
12793;BME280;6460;42.684;23.260;2023-11-21T12:08:13;94099.09;;;10.25;78.51
12793;BME280;6460;42.684;23.260;2023-11-21T12:10:40;94096.91;;;10.34;80.58
12793;BME280;6460;42.684;23.260;2023-11-21T12:13:09;94104.41;;;10.22;82.74
12793;BME280;6460;42.684;23.260;2023-11-21T12:15:38;94105.47;;;10.14;84.63
12793;BME280;6460;42.684;23.260;2023-11-21T12:18:07;94100.34;;;10.05;85.51
12793;BME280;6460;42.684;23.260;2023-11-21T12:20:34;94095.56;;;9.91;86.44
12793;BME280;6460;42.684;23.260;2023-11-21T12:23:05;94090.19;;;10.18;86.67
12793;BME280;6460;42.684;23.260;2023-11-21T12:25:35;94087.97;;;9.97;87.20
12793;BME280;6460;42.684;23.260;2023-11-21T12:28:05;94092.09;;;10.17;87.18
12793;BME280;6460;42.684;23.260;2023-11-21T12:30:34;94097.88;;;10.19;86.59
12793;BME280;6460;42.684;23.260;2023-11-21T12:33:03;94102.66;;;10.06;87.04
12793;BME280;6460;42.684;23.260;2023-11-21T12:35:34;94102.59;;;10.03;85.18
12793;BME280;6460;42.684;23.260;2023-11-21T12:38:02;94099.31;;;9.87;84.52
12793;BME280;6460;42.684;23.260;2023-11-21T12:40:29;94087.44;;;9.88;85.58
12793;BME280;6460;42.684;23.260;2023-11-21T12:42:59;94086.94;;;9.79;86.17
12793;BME280;6460;42.684;23.260;2023-11-21T12:45:32;94078.00;;;10.24;100.00
12793;BME280;6460;42.684;23.260;2023-11-21T12:48:00;94075.13;;;10.39;100.00
12793;BME280;6460;42.684;23.260;2023-11-21T12:50:33;94061.16;;;10.27;89.50
12793;BME280;6460;42.684;23.260;2023-11-21T12:53:03;94072.13;;;10.15;86.39
12793;BME280;6460;42.684;23.260;2023-11-21T12:55:32;94062.66;;;10.24;85.56
12793;BME280;6460;42.684;23.260;2023-11-21T12:58:05;94063.06;;;10.26;84.74
12793;BME280;6460;42.684;23.260;2023-11-21T13:00:35;94051.63;;;10.33;84.70
12793;BME280;6460;42.684;23.260;2023-11-21T13:03:05;94051.69;;;10.36;84.49
12793;BME280;6460;42.684;23.260;2023-11-21T13:05:33;94043.22;;;10.38;86.81
12793;BME280;6460;42.684;23.260;2023-11-21T13:08:05;94047.84;;;10.37;86.73
12793;BME280;6460;42.684;23.260;2023-11-21T13:10:35;94048.59;;;10.38;85.96
12793;BME280;6460;42.684;23.260;2023-11-21T13:13:05;94047.88;;;10.11;86.80
12793;BME280;6460;42.684;23.260;2023-11-21T13:15:33;94057.03;;;10.36;87.00
12793;BME280;6460;42.684;23.260;2023-11-21T13:18:02;94051.50;;;10.22;87.62
12793;BME280;6460;42.684;23.260;2023-11-21T13:20:29;94057.88;;;10.44;87.28
12793;BME280;6460;42.684;23.260;2023-11-21T13:22:56;94047.53;;;10.42;87.35
12793;BME280;6460;42.684;23.260;2023-11-21T13:25:25;94043.03;;;10.20;86.97